Terminal Aerodrome Forecast
Issued by NWS

Current Version | Previous Version | Text Only | Print | Product List | Glossary On
Versions: 1 2 3 4 5 6 7 8 9 10 11 12 13 14 15 16 17 18 19
000
FTAK31 PAJN 172300
TAFAGY
TAF
PAGY 172331Z 1800/1824 VRB04KT P6SM BKN080
     FM180300 04006KT P6SM BKN080
     FM181400 04010KT P6SM BKN060 OVC080
     FM181800 04013G19KT P6SM BKN060 OVC080
      AMD LTD TO CLD VIS AND WIND=

USA.gov is the U.S. government's official web portal to all federal, state and local government web resources and services.